This is the latest recevied weather packets stored in our database for station/object KD0JCP-10. If no packets are shown the sender has not sent any weather packets the latest 10 day(s).
| Time | Temp. | Humidity | Pressure | Rain* | Wind** | Luminosity | Snow |
|---|---|---|---|---|---|---|---|
| 1777727182 | 6.67° C | 54% | 1024 hPa | 0 mm | - | - | - |
| 1777726882 | 6.11° C | 54% | 1024.1 hPa | 0 mm | - | - | - |
| 1777726582 | 6.11° C | 55% | 1024.1 hPa | 0 mm | - | - | - |
| 1777726282 | 5.56° C | 56% | 1024.1 hPa | 0 mm | - | - | - |
| 1777725982 | 5.56° C | 57% | 1023.9 hPa | 0 mm | - | - | - |
| 1777725382 | 4.44° C | 70% | 1024 hPa | 0 mm | - | - | - |
| 1777725082 | 3.33° C | 72% | 1024 hPa | 0 mm | - | - | - |
| 1777724782 | 2.78° C | 73% | 1024 hPa | 0 mm | - | - | - |
| 1777724482 | 2.22° C | 77% | 1024 hPa | 0 mm | - | - | - |
| 1777724182 | 1.67° C | 76% | 1024.1 hPa | 0 mm | - | - | - |
| 1777723882 | 1.11° C | 77% | 1023.9 hPa | 0 mm | - | - | - |
| 1777723282 | 0.56° C | 78% | 1023.8 hPa | 0 mm | - | - | - |
| 1777722682 | 0.56° C | 78% | 1023.7 hPa | 0 mm | - | - | - |
| 1777722082 | 0.56° C | 78% | 1023.6 hPa | 0 mm | - | - | - |
| 1777721782 | 0.56° C | 78% | 1023.7 hPa | 0 mm | - | - | - |
| 1777721482 | 0.56° C | 77% | 1023.8 hPa | 0 mm | - | - | - |
| 1777721182 | 0.56° C | 78% | 1023.7 hPa | 0 mm | - | - | - |
| 1777720882 | 0.56° C | 78% | 1023.6 hPa | 0 mm | - | - | - |
| 1777720582 | 0.56° C | 78% | 1023.5 hPa | 0 mm | - | - | - |
| 1777720282 | 0.56° C | 77% | 1023.6 hPa | 0 mm | - | - | - |
| 1777719982 | 0.56° C | 77% | 1023.5 hPa | 0 mm | - | - | - |
| 1777719682 | 0.56° C | 80% | 1023.6 hPa | 0 mm | - | - | - |
| 1777719382 | 0.56° C | 80% | 1023.7 hPa | 0 mm | - | - | - |
| 1777719082 | 0.56° C | 80% | 1023.7 hPa | 0 mm | - | - | - |
| 1777718782 | 0.56° C | 80% | 1023.6 hPa | 0 mm | - | - | - |
* Rain latest hour (hover to see other rain measurements)
** Current wind speed in m/s (hover to see current wind gust speed)